createdAt,value
2018-02-20T00:00:53.373Z,81.00
2018-02-20T00:01:54.093Z,80.00
2018-02-20T00:02:54.797Z,84.00
2018-02-20T00:03:55.502Z,77.00
2018-02-20T00:04:56.208Z,84.00
2018-02-20T00:05:56.928Z,81.00
2018-02-20T00:06:57.635Z,80.00
2018-02-20T00:07:58.352Z,80.00
2018-02-20T00:08:59.059Z,101.00
2018-02-20T00:09:59.763Z,78.00
2018-02-20T00:11:00.478Z,96.00
2018-02-20T00:12:01.184Z,83.00
2018-02-20T00:13:01.888Z,84.00
2018-02-20T00:14:02.605Z,91.00
2018-02-20T00:15:03.313Z,110.00
2018-02-20T00:16:04.032Z,74.00
2018-02-20T00:17:04.736Z,96.00
2018-02-20T00:18:05.441Z,86.00
2018-02-20T00:19:06.156Z,88.00
2018-02-20T00:20:06.873Z,79.00
2018-02-20T00:21:07.591Z,67.00
2018-02-20T00:22:08.308Z,91.00
2018-02-20T00:23:09.027Z,100.00
2018-02-20T00:24:09.750Z,79.00
2018-02-20T00:25:10.464Z,93.00
2018-02-20T00:26:11.172Z,107.00
2018-02-20T00:27:11.888Z,85.00
2018-02-20T00:28:12.593Z,93.00
2018-02-20T00:29:13.308Z,85.00
2018-02-20T00:30:14.012Z,82.00
2018-02-20T00:31:14.716Z,90.00
2018-02-20T00:32:15.421Z,89.00
2018-02-20T00:33:16.128Z,100.00
2018-02-20T00:34:16.832Z,79.00
2018-02-20T00:35:17.537Z,81.00
2018-02-20T00:36:18.242Z,80.00
2018-02-20T00:37:18.945Z,86.00
2018-02-20T00:38:19.653Z,72.00
2018-02-20T00:39:20.371Z,89.00
2018-02-20T00:40:21.077Z,78.00
2018-02-20T00:41:21.784Z,86.00
2018-02-20T00:42:22.501Z,76.00
2018-02-20T00:43:23.206Z,87.00
2018-02-20T00:44:23.924Z,101.00
2018-02-20T00:45:24.630Z,80.00
2018-02-20T00:46:25.335Z,89.00
2018-02-20T00:47:26.041Z,92.00
2018-02-20T00:48:26.748Z,88.00
2018-02-20T00:49:27.451Z,90.00
2018-02-20T00:50:28.157Z,90.00
2018-02-20T00:51:28.863Z,87.00
2018-02-20T00:52:29.568Z,80.00
2018-02-20T00:53:30.275Z,75.00
2018-02-20T00:54:30.981Z,94.00
2018-02-20T00:55:31.687Z,80.00
2018-02-20T00:56:32.393Z,90.00
2018-02-20T00:57:33.098Z,83.00
2018-02-20T00:58:33.809Z,91.00
2018-02-20T00:59:34.511Z,89.00
2018-02-20T01:00:35.217Z,84.00
2018-02-20T01:01:35.922Z,87.00
2018-02-20T01:02:36.641Z,109.00
2018-02-20T01:03:37.336Z,102.00
2018-02-20T01:04:38.043Z,75.00
2018-02-20T01:05:38.750Z,75.00
2018-02-20T01:06:39.472Z,90.00
2018-02-20T01:07:40.174Z,82.00
2018-02-20T01:08:40.880Z,87.00
2018-02-20T01:09:41.588Z,86.00
2018-02-20T01:10:42.294Z,78.00
2018-02-20T01:11:43.014Z,92.00
2018-02-20T01:12:43.722Z,91.00
2018-02-20T01:13:44.426Z,78.00
2018-02-20T01:14:45.131Z,85.00
2018-02-20T01:15:45.836Z,87.00
2018-02-20T01:16:46.541Z,88.00
2018-02-20T01:17:47.261Z,75.00
2018-02-20T01:18:47.968Z,94.00
2018-02-20T01:19:48.674Z,67.00
2018-02-20T01:20:49.380Z,71.00
2018-02-20T01:21:50.087Z,80.00
2018-02-20T01:22:50.807Z,75.00
2018-02-20T01:23:51.524Z,67.00
2018-02-20T01:24:52.243Z,90.00
2018-02-20T01:25:52.949Z,79.00
2018-02-20T01:26:53.657Z,90.00
2018-02-20T01:27:54.362Z,74.00
2018-02-20T01:28:55.070Z,72.00
2018-02-20T01:29:55.774Z,90.00
2018-02-20T01:30:56.490Z,86.00
2018-02-20T01:31:57.198Z,91.00
2018-02-20T01:32:57.904Z,71.00
2018-02-20T01:33:58.611Z,97.00
2018-02-20T01:34:59.319Z,104.00
2018-02-20T01:36:00.042Z,80.00
2018-02-20T01:37:00.757Z,68.00
2018-02-20T01:38:01.464Z,89.00
2018-02-20T01:39:02.170Z,94.00
2018-02-20T01:40:02.875Z,76.00
2018-02-20T01:41:03.579Z,83.00
2018-02-20T01:42:04.284Z,106.00
2018-02-20T01:43:04.989Z,81.00
2018-02-20T01:44:05.695Z,75.00
2018-02-20T01:45:06.413Z,67.00
2018-02-20T01:46:07.134Z,87.00
2018-02-20T01:47:07.840Z,90.00
2018-02-20T01:48:08.547Z,80.00
2018-02-20T01:49:09.254Z,87.00
2018-02-20T01:50:09.963Z,92.00
2018-02-20T01:51:10.668Z,75.00
2018-02-20T01:52:11.378Z,71.00
2018-02-20T01:53:12.078Z,95.00
2018-02-20T01:54:12.782Z,66.00
2018-02-20T01:55:13.489Z,75.00
2018-02-20T01:56:14.194Z,73.00
2018-02-20T01:58:15.542Z,63.00
2018-02-20T01:59:16.293Z,73.00
2018-02-20T02:00:17.008Z,92.00
2018-02-20T02:01:17.729Z,73.00
2018-02-20T02:02:18.474Z,78.00
2018-02-20T02:03:19.204Z,98.00
2018-02-20T02:04:19.955Z,81.00
2018-02-20T02:05:20.696Z,88.00
2018-02-20T02:06:21.427Z,97.00
2018-02-20T02:07:22.139Z,68.00
2018-02-20T02:08:22.894Z,82.00
2018-02-20T02:09:23.645Z,80.00
2018-02-20T02:10:24.374Z,89.00
2018-02-20T02:11:25.092Z,88.00
2018-02-20T02:12:25.808Z,90.00
2018-02-20T02:13:26.549Z,90.00
2018-02-20T02:14:27.302Z,65.00
2018-02-20T02:15:28.020Z,108.00
2018-02-20T02:16:28.750Z,91.00
2018-02-20T02:17:29.476Z,87.00
2018-02-20T02:18:30.190Z,86.00
2018-02-20T02:19:30.919Z,81.00
2018-02-20T02:20:31.673Z,92.00
2018-02-20T02:21:32.402Z,69.00
2018-02-20T02:22:33.130Z,86.00
2018-02-20T02:23:33.849Z,103.00
2018-02-20T02:24:34.565Z,92.00
2018-02-20T02:25:35.283Z,94.00
2018-02-20T02:26:36.002Z,73.00
2018-02-20T02:27:36.731Z,73.00
2018-02-20T02:28:37.446Z,79.00
2018-02-20T02:29:38.176Z,96.00
2018-02-20T02:30:38.897Z,77.00
2018-02-20T02:31:39.613Z,76.00
2018-02-20T02:32:40.366Z,84.00
2018-02-20T02:33:41.136Z,88.00
2018-02-20T02:34:41.852Z,85.00
2018-02-20T02:35:42.569Z,70.00
2018-02-20T02:36:43.287Z,84.00
2018-02-20T02:37:44.017Z,65.00
2018-02-20T02:38:44.770Z,82.00
2018-02-20T02:39:45.489Z,68.00
2018-02-20T02:40:46.206Z,71.00
2018-02-20T02:41:46.935Z,75.00
2018-02-20T02:42:47.656Z,92.00
2018-02-20T02:43:48.404Z,105.00
2018-02-20T02:44:49.121Z,72.00
2018-02-20T02:45:49.848Z,78.00
2018-02-20T02:46:50.565Z,66.00
2018-02-20T02:47:51.310Z,102.00
2018-02-20T02:48:52.028Z,82.00
2018-02-20T02:49:52.755Z,93.00
2018-02-20T02:50:53.471Z,85.00
2018-02-20T02:51:54.188Z,82.00
2018-02-20T02:52:54.906Z,79.00
2018-02-20T02:53:55.637Z,79.00
2018-02-20T02:54:56.362Z,86.00
2018-02-20T02:55:57.135Z,71.00
2018-02-20T02:56:57.893Z,59.00
2018-02-20T02:57:58.647Z,73.00
2018-02-20T02:58:59.364Z,62.00
2018-02-20T03:00:00.082Z,70.00
2018-02-20T03:01:00.809Z,80.00
2018-02-20T03:02:01.536Z,70.00
2018-02-20T03:03:02.286Z,77.00
2018-02-20T03:04:03.020Z,85.00
2018-02-20T03:05:03.769Z,92.00
2018-02-20T03:06:04.513Z,62.00
2018-02-20T03:07:05.232Z,104.00
2018-02-20T03:08:05.948Z,74.00
2018-02-20T03:09:06.668Z,79.00
2018-02-20T03:10:07.384Z,77.00
2018-02-20T03:11:08.115Z,79.00
2018-02-20T03:12:08.828Z,80.00
2018-02-20T03:13:09.547Z,66.00
2018-02-20T03:14:10.288Z,81.00
2018-02-20T03:15:11.004Z,63.00
2018-02-20T03:16:11.721Z,66.00
2018-02-20T03:17:12.450Z,94.00
2018-02-20T03:18:13.165Z,92.00
2018-02-20T03:19:14.146Z,91.00
2018-02-20T03:20:14.898Z,78.00
2018-02-20T03:21:15.638Z,84.00
2018-02-20T03:22:16.354Z,82.00
2018-02-20T03:23:17.088Z,77.00
2018-02-20T03:24:17.811Z,70.00
2018-02-20T03:25:18.562Z,69.00
2018-02-20T03:26:19.278Z,90.00
2018-02-20T03:27:19.995Z,65.00
2018-02-20T03:28:20.734Z,94.00
2018-02-20T03:29:21.463Z,66.00
2018-02-20T03:30:22.182Z,82.00
2018-02-20T03:31:22.934Z,86.00
2018-02-20T03:32:23.661Z,90.00
2018-02-20T03:33:24.391Z,105.00
2018-02-20T03:34:25.120Z,89.00
2018-02-20T03:35:25.847Z,74.00
2018-02-20T03:36:26.564Z,78.00
2018-02-20T03:37:27.291Z,73.00
2018-02-20T03:38:28.020Z,82.00
2018-02-20T03:39:28.773Z,80.00
2018-02-20T03:40:29.501Z,61.00
2018-02-20T03:41:30.218Z,83.00
2018-02-20T03:42:30.969Z,103.00
2018-02-20T03:43:31.687Z,97.00
2018-02-20T03:44:32.414Z,91.00
2018-02-20T03:45:33.142Z,68.00
2018-02-20T03:46:33.907Z,68.00
2018-02-20T03:47:34.659Z,78.00
2018-02-20T03:48:35.374Z,77.00
2018-02-20T03:49:36.127Z,106.00
2018-02-20T03:50:36.857Z,96.00
2018-02-20T03:51:37.620Z,83.00
2018-02-20T03:52:38.329Z,89.00
2018-02-20T03:53:39.048Z,87.00
2018-02-20T03:54:39.765Z,81.00
2018-02-20T03:55:40.482Z,71.00
2018-02-20T03:56:41.222Z,79.00
2018-02-20T03:57:41.938Z,79.00
2018-02-20T03:58:42.656Z,89.00
2018-02-20T03:59:43.391Z,79.00
2018-02-20T04:00:44.102Z,74.00
2018-02-20T04:01:44.830Z,88.00
2018-02-20T04:02:45.545Z,66.00
2018-02-20T04:03:46.275Z,101.00
2018-02-20T04:04:47.028Z,88.00
2018-02-20T04:05:47.747Z,97.00
2018-02-20T04:06:48.489Z,89.00
2018-02-20T04:07:49.218Z,90.00
2018-02-20T04:08:49.937Z,85.00
2018-02-20T04:09:50.652Z,74.00
2018-02-20T04:10:51.392Z,89.00
2018-02-20T04:11:52.120Z,95.00
2018-02-20T04:12:52.851Z,75.00
2018-02-20T04:13:53.569Z,95.00
2018-02-20T04:14:54.298Z,108.00
2018-02-20T04:15:55.017Z,85.00
2018-02-20T04:16:55.733Z,64.00
2018-02-20T04:17:56.449Z,93.00
2018-02-20T04:18:57.191Z,71.00
2018-02-20T04:19:57.915Z,99.00
2018-02-20T04:20:58.662Z,89.00
2018-02-20T04:21:59.379Z,91.00
2018-02-20T04:23:00.109Z,72.00
2018-02-20T04:24:00.827Z,84.00
2018-02-20T04:25:01.544Z,79.00
2018-02-20T04:26:02.262Z,71.00
2018-02-20T04:27:03.017Z,89.00
2018-02-20T04:28:03.735Z,84.00
2018-02-20T04:29:04.475Z,106.00
2018-02-20T04:30:05.204Z,80.00
2018-02-20T04:31:05.922Z,86.00
2018-02-20T04:32:06.640Z,100.00
2018-02-20T04:33:07.360Z,80.00
2018-02-20T04:34:08.100Z,67.00
2018-02-20T04:35:08.828Z,88.00
2018-02-20T04:36:09.546Z,81.00
2018-02-20T04:37:10.288Z,72.00
2018-02-20T04:38:11.015Z,85.00
2018-02-20T04:39:11.744Z,82.00
2018-02-20T04:40:12.460Z,76.00
2018-02-20T04:41:13.187Z,81.00
2018-02-20T04:42:13.905Z,81.00
2018-02-20T04:43:14.623Z,66.00
2018-02-20T04:44:15.339Z,76.00
2018-02-20T04:45:16.059Z,80.00
2018-02-20T04:46:16.787Z,86.00
2018-02-20T04:47:17.543Z,68.00
2018-02-20T04:48:18.294Z,81.00
2018-02-20T04:49:19.044Z,87.00
2018-02-20T04:50:19.772Z,83.00
2018-02-20T04:51:20.498Z,84.00
2018-02-20T04:52:21.251Z,88.00
2018-02-20T04:53:21.967Z,90.00
2018-02-20T04:54:22.741Z,76.00
2018-02-20T04:55:23.414Z,74.00
2018-02-20T04:56:24.128Z,87.00
2018-02-20T04:57:24.846Z,86.00
2018-02-20T04:58:25.576Z,87.00
2018-02-20T04:59:26.294Z,82.00
2018-02-20T05:00:27.014Z,77.00
2018-02-20T05:01:27.729Z,86.00
2018-02-20T05:02:28.458Z,80.00
2018-02-20T05:03:29.185Z,84.00
2018-02-20T05:04:29.915Z,85.00
2018-02-20T05:05:30.642Z,85.00
2018-02-20T05:06:31.359Z,95.00
2018-02-20T05:07:32.078Z,84.00
2018-02-20T05:08:32.825Z,73.00
2018-02-20T05:09:33.576Z,68.00
2018-02-20T05:10:34.318Z,77.00
2018-02-20T05:11:35.063Z,71.00
2018-02-20T05:12:35.789Z,88.00
2018-02-20T05:13:36.516Z,75.00
2018-02-20T05:14:37.244Z,84.00
2018-02-20T05:15:37.962Z,85.00
2018-02-20T05:16:38.678Z,82.00
2018-02-20T05:17:39.394Z,83.00
2018-02-20T05:18:40.123Z,102.00
2018-02-20T05:19:40.840Z,90.00
2018-02-20T05:20:41.557Z,83.00
2018-02-20T05:21:42.274Z,70.00
2018-02-20T05:22:42.990Z,75.00
2018-02-20T05:23:43.718Z,73.00
2018-02-20T05:24:44.448Z,62.00
2018-02-20T05:25:45.179Z,79.00
2018-02-20T05:26:45.903Z,81.00
2018-02-20T05:27:46.631Z,78.00
2018-02-20T05:28:47.360Z,76.00
2018-02-20T05:29:48.076Z,79.00
2018-02-20T05:30:48.806Z,81.00
2018-02-20T05:31:49.523Z,112.00
2018-02-20T05:32:50.241Z,95.00
2018-02-20T05:33:50.982Z,73.00
2018-02-20T05:34:51.698Z,68.00
2018-02-20T05:35:52.438Z,94.00
2018-02-20T05:36:53.153Z,72.00
2018-02-20T05:37:53.894Z,100.00
2018-02-20T05:38:54.645Z,79.00
2018-02-20T05:39:55.373Z,64.00
2018-02-20T05:40:56.095Z,93.00
2018-02-20T05:41:56.809Z,90.00
2018-02-20T05:42:57.527Z,86.00
2018-02-20T05:43:58.244Z,100.00
2018-02-20T05:44:58.983Z,91.00
2018-02-20T05:45:59.724Z,100.00
2018-02-20T05:47:00.481Z,78.00
2018-02-20T05:48:01.229Z,93.00
2018-02-20T05:49:01.949Z,83.00
2018-02-20T05:50:02.678Z,98.00
2018-02-20T05:51:03.407Z,87.00
2018-02-20T05:52:04.123Z,74.00
2018-02-20T05:53:04.838Z,83.00
2018-02-20T05:54:05.593Z,76.00
2018-02-20T05:55:06.316Z,97.00
2018-02-20T05:56:07.032Z,98.00
2018-02-20T05:57:07.762Z,70.00
2018-02-20T05:58:08.478Z,85.00
2018-02-20T05:59:09.232Z,79.00
2018-02-20T06:00:09.957Z,81.00
2018-02-20T06:01:10.686Z,89.00
2018-02-20T06:02:11.405Z,85.00
2018-02-20T06:03:12.133Z,79.00
2018-02-20T06:04:12.849Z,90.00
2018-02-20T06:05:13.578Z,85.00
2018-02-20T06:06:14.306Z,77.00
2018-02-20T06:07:15.033Z,82.00
2018-02-20T06:08:15.763Z,65.00
2018-02-20T06:09:16.478Z,97.00
2018-02-20T06:10:17.196Z,109.00
2018-02-20T06:11:17.915Z,104.00
2018-02-20T06:12:18.659Z,76.00
2018-02-20T06:13:19.397Z,63.00
2018-02-20T06:14:20.118Z,85.00
2018-02-20T06:15:20.834Z,86.00
2018-02-20T06:16:21.587Z,77.00
2018-02-20T06:17:22.306Z,80.00
2018-02-20T06:18:23.027Z,99.00
2018-02-20T06:19:23.746Z,106.00
2018-02-20T06:20:24.475Z,82.00
2018-02-20T06:21:25.195Z,91.00
2018-02-20T06:22:25.907Z,67.00
2018-02-20T06:23:26.637Z,83.00
2018-02-20T06:24:27.356Z,69.00
2018-02-20T06:25:28.086Z,94.00
2018-02-20T06:26:28.815Z,85.00
2018-02-20T06:27:29.535Z,95.00
2018-02-20T06:28:30.254Z,85.00
2018-02-20T06:29:30.983Z,75.00
2018-02-20T06:30:31.715Z,81.00
2018-02-20T06:31:32.446Z,84.00
2018-02-20T06:32:33.164Z,66.00
2018-02-20T06:33:33.883Z,68.00
2018-02-20T06:34:34.601Z,75.00
2018-02-20T06:35:35.320Z,83.00
2018-02-20T06:36:36.064Z,79.00
2018-02-20T06:37:36.795Z,87.00
2018-02-20T06:38:37.560Z,96.00
2018-02-20T06:39:38.328Z,88.00
2018-02-20T06:40:39.049Z,93.00
2018-02-20T06:41:39.769Z,96.00
2018-02-20T06:42:40.504Z,94.00
2018-02-20T06:43:41.235Z,81.00
2018-02-20T06:44:41.992Z,106.00
2018-02-20T06:45:42.714Z,86.00
2018-02-20T06:46:43.448Z,90.00
2018-02-20T06:47:44.216Z,69.00
2018-02-20T06:48:44.940Z,87.00
2018-02-20T06:49:45.684Z,104.00
2018-02-20T06:50:46.405Z,80.00
2018-02-20T06:51:47.127Z,93.00
2018-02-20T06:52:47.856Z,83.00
2018-02-20T06:53:48.578Z,86.00
2018-02-20T06:54:49.308Z,96.00
2018-02-20T06:55:50.061Z,81.00
2018-02-20T06:56:50.782Z,92.00
2018-02-20T06:57:51.517Z,97.00
2018-02-20T06:58:52.250Z,102.00
2018-02-20T06:59:52.970Z,83.00
2018-02-20T07:00:53.693Z,91.00
2018-02-20T07:01:54.412Z,84.00
2018-02-20T07:02:55.140Z,90.00
2018-02-20T07:03:55.857Z,81.00
2018-02-20T07:04:56.603Z,76.00
2018-02-20T07:05:57.348Z,78.00
2018-02-20T07:06:58.084Z,105.00
2018-02-20T07:07:58.802Z,87.00
2018-02-20T07:08:59.525Z,84.00
2018-02-20T07:10:00.270Z,89.00
2018-02-20T07:11:00.993Z,88.00
2018-02-20T07:12:01.724Z,89.00
2018-02-20T07:13:02.458Z,80.00
2018-02-20T07:14:03.217Z,100.00
2018-02-20T07:15:03.939Z,80.00
2018-02-20T07:16:04.660Z,76.00
2018-02-20T07:17:05.382Z,69.00
2018-02-20T07:18:06.105Z,72.00
2018-02-20T07:19:06.824Z,89.00
2018-02-20T07:20:07.545Z,67.00
2018-02-20T07:21:08.266Z,75.00
2018-02-20T07:22:08.999Z,78.00
2018-02-20T07:23:09.761Z,89.00
2018-02-20T07:24:10.504Z,83.00
2018-02-20T07:25:11.230Z,65.00
2018-02-20T07:26:11.953Z,84.00
2018-02-20T07:27:12.699Z,79.00
2018-02-20T07:28:13.421Z,69.00
2018-02-20T07:29:14.169Z,91.00
2018-02-20T07:30:14.893Z,90.00
2018-02-20T07:31:15.618Z,84.00
2018-02-20T07:32:16.344Z,53.00
2018-02-20T07:33:17.103Z,82.00
2018-02-20T07:34:17.825Z,73.00
2018-02-20T07:35:18.550Z,75.00
2018-02-20T07:36:19.284Z,69.00
2018-02-20T07:37:20.010Z,82.00
2018-02-20T07:38:20.735Z,63.00
2018-02-20T07:39:21.471Z,85.00
2018-02-20T07:40:22.194Z,72.00
2018-02-20T07:41:22.931Z,75.00
2018-02-20T07:42:23.666Z,87.00
2018-02-20T07:43:24.405Z,70.00
2018-02-20T07:44:25.173Z,92.00
2018-02-20T07:45:25.917Z,72.00
2018-02-20T07:46:26.655Z,84.00
2018-02-20T07:47:27.393Z,83.00
2018-02-20T07:48:28.132Z,72.00
2018-02-20T07:49:28.870Z,72.00
2018-02-20T07:50:29.597Z,85.00
2018-02-20T07:51:30.345Z,81.00
2018-02-20T07:52:31.083Z,76.00
2018-02-20T07:53:31.810Z,106.00
2018-02-20T07:54:32.571Z,107.00
2018-02-20T07:55:33.343Z,85.00
2018-02-20T07:56:34.082Z,77.00
2018-02-20T07:57:34.822Z,83.00
2018-02-20T07:58:35.551Z,80.00
2018-02-20T07:59:36.292Z,68.00
2018-02-20T08:00:37.031Z,74.00
2018-02-20T08:01:37.795Z,91.00
2018-02-20T08:02:38.549Z,63.00
2018-02-20T08:03:39.275Z,77.00
2018-02-20T08:04:40.005Z,86.00
2018-02-20T08:05:40.730Z,51.00
2018-02-20T08:06:41.470Z,62.00
2018-02-20T08:07:42.211Z,76.00
2018-02-20T08:08:42.952Z,83.00
2018-02-20T08:09:43.681Z,58.00
2018-02-20T08:10:44.435Z,65.00
2018-02-20T08:11:45.162Z,94.00
2018-02-20T08:12:45.893Z,74.00
2018-02-20T08:13:46.628Z,77.00
2018-02-20T08:14:47.356Z,72.00
2018-02-20T08:15:48.099Z,65.00
2018-02-20T08:16:48.831Z,84.00
2018-02-20T08:17:49.559Z,81.00
2018-02-20T08:18:50.312Z,69.00
2018-02-20T08:19:51.045Z,64.00
2018-02-20T08:20:51.780Z,75.00
2018-02-20T08:21:52.518Z,65.00
2018-02-20T08:22:53.286Z,73.00
2018-02-20T08:23:54.026Z,77.00
2018-02-20T08:24:54.769Z,82.00
2018-02-20T08:25:55.502Z,87.00
2018-02-20T08:26:56.256Z,83.00
2018-02-20T08:27:56.986Z,83.00
2018-02-20T08:28:57.732Z,64.00
2018-02-20T08:29:58.466Z,71.00
2018-02-20T08:30:59.197Z,79.00
2018-02-20T08:31:59.951Z,70.00
2018-02-20T08:33:00.707Z,62.00
2018-02-20T08:34:01.443Z,62.00
2018-02-20T08:35:02.176Z,65.00
2018-02-20T08:36:02.910Z,65.00
2018-02-20T08:37:03.656Z,71.00
2018-02-20T08:38:04.393Z,68.00
2018-02-20T08:39:05.151Z,77.00
2018-02-20T08:40:05.889Z,67.00
2018-02-20T08:41:06.629Z,60.00
2018-02-20T08:42:07.373Z,89.00
2018-02-20T08:43:08.120Z,72.00
2018-02-20T08:44:08.867Z,88.00
2018-02-20T08:45:09.616Z,70.00
2018-02-20T08:46:10.361Z,67.00
2018-02-20T08:47:11.098Z,61.00
2018-02-20T08:48:11.838Z,71.00
2018-02-20T08:49:12.600Z,64.00
2018-02-20T08:50:13.336Z,74.00
2018-02-20T08:51:14.072Z,72.00
2018-02-20T08:52:14.823Z,69.00
2018-02-20T08:53:15.569Z,61.00
2018-02-20T08:54:16.308Z,70.00
2018-02-20T08:55:17.047Z,56.00
2018-02-20T08:56:17.794Z,82.00
2018-02-20T08:57:18.544Z,79.00
2018-02-20T08:58:19.279Z,70.00
2018-02-20T08:59:20.038Z,76.00
2018-02-20T09:00:20.811Z,89.00
2018-02-20T09:01:21.547Z,58.00
2018-02-20T09:02:22.283Z,52.00
2018-02-20T09:03:23.034Z,60.00
2018-02-20T09:04:23.772Z,81.00
2018-02-20T09:05:24.509Z,67.00
2018-02-20T09:06:25.272Z,72.00
2018-02-20T09:07:26.013Z,75.00
2018-02-20T09:08:26.751Z,61.00
2018-02-20T09:09:27.490Z,63.00
2018-02-20T09:10:28.232Z,70.00
2018-02-20T09:11:28.994Z,73.00
2018-02-20T09:12:29.732Z,77.00
2018-02-20T09:13:30.484Z,60.00
2018-02-20T09:14:31.221Z,53.00
2018-02-20T09:15:31.961Z,59.00
2018-02-20T09:16:32.695Z,55.00
2018-02-20T09:17:33.437Z,72.00
2018-02-20T09:18:34.202Z,69.00
2018-02-20T09:19:34.977Z,53.00
2018-02-20T09:20:35.729Z,72.00
2018-02-20T09:21:36.480Z,80.00
2018-02-20T09:22:37.229Z,63.00
2018-02-20T09:23:38.005Z,69.00
2018-02-20T09:24:38.745Z,63.00
2018-02-20T09:25:39.487Z,78.00
2018-02-20T09:26:40.250Z,69.00
2018-02-20T09:27:41.013Z,65.00
2018-02-20T09:28:41.756Z,74.00
2018-02-20T09:29:42.497Z,50.00
2018-02-20T09:30:43.252Z,71.00
2018-02-20T09:31:43.995Z,77.00
2018-02-20T09:32:44.748Z,63.00
2018-02-20T09:33:45.486Z,68.00
2018-02-20T09:34:46.239Z,62.00
2018-02-20T09:35:46.992Z,71.00
2018-02-20T09:36:47.731Z,68.00
2018-02-20T09:37:48.474Z,65.00
2018-02-20T09:38:49.240Z,78.00
2018-02-20T09:39:50.006Z,56.00
2018-02-20T09:40:50.773Z,64.00
2018-02-20T09:41:51.526Z,66.00
2018-02-20T09:42:52.277Z,59.00
2018-02-20T09:43:53.023Z,67.00
2018-02-20T09:44:53.764Z,54.00
2018-02-20T09:45:54.507Z,61.00
2018-02-20T09:46:55.262Z,59.00
2018-02-20T09:47:56.016Z,51.00
2018-02-20T09:48:56.760Z,63.00
2018-02-20T09:49:57.506Z,80.00
2018-02-20T09:50:58.262Z,56.00
2018-02-20T09:51:59.043Z,62.00
2018-02-20T09:52:59.813Z,60.00
2018-02-20T09:54:00.592Z,60.00
2018-02-20T09:55:01.348Z,56.00
2018-02-20T09:56:02.098Z,54.00
2018-02-20T09:57:02.852Z,70.00
2018-02-20T09:58:03.595Z,65.00
2018-02-20T09:59:04.344Z,66.00
2018-02-20T10:00:05.113Z,71.00
2018-02-20T10:01:05.870Z,72.00
2018-02-20T10:02:06.648Z,59.00
2018-02-20T10:03:07.409Z,56.00
2018-02-20T10:04:08.149Z,54.00
2018-02-20T10:05:08.895Z,58.00
2018-02-20T10:06:09.653Z,66.00
2018-02-20T10:07:10.399Z,56.00
2018-02-20T10:08:11.146Z,55.00
2018-02-20T10:09:11.890Z,64.00
2018-02-20T10:10:12.661Z,62.00
2018-02-20T10:11:13.406Z,60.00
2018-02-20T10:12:14.152Z,56.00
2018-02-20T10:13:14.922Z,64.00
2018-02-20T10:14:15.673Z,55.00
2018-02-20T10:15:16.462Z,55.00
2018-02-20T10:16:17.209Z,69.00
2018-02-20T10:17:17.987Z,63.00
2018-02-20T10:18:18.770Z,60.00
2018-02-20T10:19:19.529Z,53.00
2018-02-20T10:20:20.288Z,51.00
2018-02-20T10:21:21.050Z,59.00
2018-02-20T10:22:21.832Z,59.00
2018-02-20T10:23:22.590Z,69.00
2018-02-20T10:24:23.338Z,62.00
2018-02-20T10:25:24.097Z,60.00
2018-02-20T10:26:24.881Z,71.00
2018-02-20T10:27:25.640Z,65.00
2018-02-20T10:28:26.386Z,74.00
2018-02-20T10:29:27.134Z,65.00
2018-02-20T10:30:27.891Z,68.00
2018-02-20T10:31:28.674Z,58.00
2018-02-20T10:32:29.432Z,58.00
2018-02-20T10:33:30.227Z,73.00
2018-02-20T10:34:31.009Z,76.00
2018-02-20T10:35:31.783Z,75.00
2018-02-20T10:36:32.574Z,61.00
2018-02-20T10:37:33.321Z,71.00
2018-02-20T10:38:34.092Z,52.00
2018-02-20T10:39:34.838Z,64.00
2018-02-20T10:40:35.620Z,45.00
2018-02-20T10:41:36.369Z,54.00
2018-02-20T10:42:37.125Z,49.00
2018-02-20T10:43:37.871Z,59.00
2018-02-20T10:44:38.619Z,58.00
2018-02-20T10:45:39.377Z,65.00
2018-02-20T10:46:40.127Z,53.00
2018-02-20T10:47:40.907Z,58.00
2018-02-20T10:48:41.654Z,49.00
2018-02-20T10:49:42.427Z,53.00
2018-02-20T10:50:43.183Z,56.00
2018-02-20T10:51:43.923Z,53.00
2018-02-20T10:52:44.691Z,54.00
2018-02-20T10:53:45.436Z,57.00
2018-02-20T10:54:46.175Z,55.00
2018-02-20T10:55:46.927Z,45.00
2018-02-20T10:56:47.707Z,53.00
2018-02-20T10:57:48.459Z,59.00
2018-02-20T10:58:49.201Z,50.00
2018-02-20T10:59:49.943Z,51.00
2018-02-20T11:00:50.694Z,64.00
2018-02-20T11:01:51.483Z,62.00
2018-02-20T11:02:52.230Z,58.00
2018-02-20T11:03:53.004Z,53.00
2018-02-20T11:04:53.755Z,60.00
2018-02-20T11:05:54.494Z,60.00
2018-02-20T11:06:55.232Z,55.00
2018-02-20T11:07:55.972Z,50.00
2018-02-20T11:08:56.711Z,49.00
2018-02-20T11:09:57.471Z,55.00
2018-02-20T11:10:58.216Z,68.00
2018-02-20T11:11:58.951Z,65.00
2018-02-20T11:12:59.703Z,65.00
2018-02-20T11:14:00.478Z,66.00
2018-02-20T11:15:01.230Z,45.00
2018-02-20T11:16:01.971Z,63.00
2018-02-20T11:17:02.706Z,64.00
2018-02-20T11:18:03.445Z,62.00
2018-02-20T11:19:04.199Z,61.00
2018-02-20T11:20:04.950Z,56.00
2018-02-20T11:21:05.707Z,55.00
2018-02-20T11:22:06.443Z,68.00
2018-02-20T11:23:07.196Z,62.00
2018-02-20T11:24:07.934Z,54.00
2018-02-20T11:25:08.711Z,53.00
2018-02-20T11:26:09.455Z,52.00
2018-02-20T11:27:10.196Z,55.00
2018-02-20T11:28:10.938Z,62.00
2018-02-20T11:29:11.681Z,53.00
2018-02-20T11:30:12.432Z,68.00
2018-02-20T11:31:13.174Z,57.00
2018-02-20T11:32:13.937Z,53.00
2018-02-20T11:33:14.679Z,52.00
2018-02-20T11:34:15.415Z,66.00
2018-02-20T11:35:16.159Z,63.00
2018-02-20T11:36:16.907Z,60.00
2018-02-20T11:37:17.645Z,53.00
2018-02-20T11:38:18.384Z,56.00
2018-02-20T11:39:19.158Z,70.00
2018-02-20T11:40:19.909Z,50.00
2018-02-20T11:41:20.647Z,62.00
2018-02-20T11:42:21.397Z,50.00
2018-02-20T11:43:22.184Z,56.00
2018-02-20T11:44:22.924Z,61.00
2018-02-20T11:45:23.671Z,64.00
2018-02-20T11:46:24.411Z,72.00
2018-02-20T11:47:25.150Z,65.00
2018-02-20T11:48:25.915Z,67.00
2018-02-20T11:49:26.687Z,67.00
2018-02-20T11:50:27.471Z,70.00
2018-02-20T11:51:28.210Z,65.00
2018-02-20T11:52:28.982Z,67.00
2018-02-20T11:53:29.765Z,56.00
2018-02-20T11:54:30.501Z,57.00
2018-02-20T11:55:31.249Z,72.00
2018-02-20T11:56:31.999Z,67.00
2018-02-20T11:57:32.773Z,51.00
2018-02-20T11:58:33.509Z,55.00
2018-02-20T11:59:34.281Z,61.00
2018-02-20T12:00:35.019Z,58.00
2018-02-20T12:01:35.756Z,57.00
2018-02-20T12:02:36.518Z,50.00
2018-02-20T12:03:37.257Z,74.00
2018-02-20T12:04:37.996Z,69.00
2018-02-20T12:05:38.737Z,53.00
2018-02-20T12:06:39.476Z,54.00
2018-02-20T12:07:40.243Z,58.00
2018-02-20T12:08:40.980Z,44.00
2018-02-20T12:09:41.718Z,62.00
2018-02-20T12:10:42.457Z,62.00
2018-02-20T12:11:43.234Z,61.00
2018-02-20T12:12:44.009Z,49.00
2018-02-20T12:13:44.746Z,64.00
2018-02-20T12:14:45.486Z,62.00
2018-02-20T12:15:46.225Z,55.00
2018-02-20T12:16:46.966Z,63.00
2018-02-20T12:17:47.707Z,50.00
2018-02-20T12:18:48.454Z,59.00
2018-02-20T12:19:49.190Z,62.00
2018-02-20T12:20:49.933Z,47.00
2018-02-20T12:21:50.685Z,50.00
2018-02-20T12:22:51.426Z,41.00
2018-02-20T12:23:52.166Z,55.00
2018-02-20T12:24:52.921Z,56.00
2018-02-20T12:25:53.697Z,44.00
2018-02-20T12:26:54.441Z,47.00
2018-02-20T12:27:55.204Z,58.00
2018-02-20T12:28:55.948Z,66.00
2018-02-20T12:29:56.699Z,50.00
2018-02-20T12:30:57.449Z,66.00
2018-02-20T12:31:58.202Z,50.00
2018-02-20T12:32:58.944Z,45.00
2018-02-20T12:33:59.686Z,45.00
2018-02-20T12:35:00.430Z,49.00
2018-02-20T12:36:01.170Z,52.00
2018-02-20T12:37:01.910Z,43.00
2018-02-20T12:38:02.652Z,73.00
2018-02-20T12:39:03.398Z,54.00
2018-02-20T12:40:04.134Z,40.00
2018-02-20T12:41:04.875Z,48.00
2018-02-20T12:42:05.636Z,52.00
2018-02-20T12:43:06.378Z,52.00
2018-02-20T12:44:07.125Z,51.00
2018-02-20T12:45:07.875Z,50.00
2018-02-20T12:46:08.629Z,53.00
2018-02-20T12:47:09.367Z,53.00
2018-02-20T12:48:10.129Z,61.00
2018-02-20T12:49:10.872Z,50.00
2018-02-20T12:50:11.646Z,46.00
2018-02-20T12:51:12.434Z,46.00
2018-02-20T12:52:13.170Z,53.00
2018-02-20T12:53:13.910Z,48.00
2018-02-20T12:54:14.659Z,62.00
2018-02-20T12:55:15.398Z,53.00
2018-02-20T12:56:16.137Z,60.00
2018-02-20T12:57:16.888Z,50.00
2018-02-20T12:58:17.638Z,53.00
2018-02-20T12:59:18.378Z,54.00
2018-02-20T13:00:19.116Z,53.00
2018-02-20T13:01:19.854Z,52.00
2018-02-20T13:02:20.628Z,48.00